Oxford, Mississippi
Current Conditions -  °F | °C
As of 4:55 PM on Monday 24 Nov 2014 (Local Time) from KUOX Reporting Station
Clear Clear  
Wind Chill: 50°   Ceiling: Unl
Heat Index: 50°   Visibility: 10mi
Dew Point: 32°   Wind: 5mph
Humidity: 50%   Direction: 260°W
Pressure: 29.99"   Gusts: NA
Location:  34.36°N, 89.52°W
Report Text: KUOX 242255Z AUTO 26004KT 10SM CLR 10/00 A2999 RMK AO2 PWINO PNO
Loading
Personal Weather Stations






























Interactive Weather Map New forecast layout! Learn more

10-Day Weather Forecast

Advertisements
Track Severe Weather on mobile